Floresville, TX

5:01 AM CDT on October 01, 2016 (GMT -0500)
Wilson County TX, Bentwood subdiv | | Change Station

Elev 472 ft 29.20 °N, 98.20 °W | Updated 4 minutes ago

Clear
Clear
62.6 °F
Feels Like 62.6 °F
N
0.0
Wind Variable Wind from North
Gusts 0.0 mph

Today
High -- | Low -- °F
--% Chance of Precip.
Yesterday
High -- | Low -- °F
Precip. -- in
Pressure 30.04 in
Visibility 10.0 miles
Clouds Clear
Dew Point 55 °F
Humidity 76%
Rainfall 0.00 in
Snow Depth Not available.
7:26 AM 7:17 PM
New Moon, 0% visible
METAR KSSF 010953Z AUTO 00000KT 10SM CLR 18/14 A3007 RMK AO2 SLP173 T01780139
Pressure 30.04 in
Visibility 10.0 miles
Clouds Clear
Dew Point 55 °F
Humidity 76%
Rainfall 0.00 in
Snow Depth Not available.
7:26 AM 7:17 PM
New Moon, 0% visible
METAR KSSF 010953Z AUTO 00000KT 10SM CLR 18/14 A3007 RMK AO2 SLP173 T01780139

10-Day Weather Forecast

Almanac

Astronomy

Oct. 01, 2016 Rise Set
Actual Time
Civil Twilight
Nautical Twilight
Astronomical Twilight
Moon
Length of Visible Light
Length of Day
Tomorrow will be .
, % of the Moon is Illuminated

Today's Extremes

State Highs State Lows

Community

WunderPhotos

Upload Photos

1,942,907 photos uploaded!

WunderBlog® & News

Nearby

Air Quality

  Air Quality AQ Index Pollutant
Not available.

Snow Depth

Station Depth Elevation

Earthquake Activity

City Distance Mag. Time & Date
Minimum magnitude displayed is 2.5.

Coastal Water Temperatures

Place Temperature

Stations

Nearby Weather Stations

Station Location Temp. Windchill Dew Point Humidity Wind Precip. Elev Updated Type
                   

Watches & Warnings

There are currently no watches in effect.